Time;durP1;ratioP1;P1;durP2;ratioP2;P2;SDS_P1;SDS_P2;PMS_P1;PMS_P2;Temp;Humidity;BMP_temperature;BMP_pressure;BME280_temperature;BME280_humidity;BME280_pressure;Samples;Min_cycle;Max_cycle;Signal;HPM_P1;HPM_P2
2021/11/28 00:02:19;;;;;;;30.05;17.60;;;;;;;9.01;56.45;99141.25;5014600;28;97867;-78
2021/11/28 00:04:46;;;;;;;31.77;17.63;;;;;;;9.18;55.95;99147.31;5014984;28;96870;-79
2021/11/28 00:07:24;;;;;;;28.27;17.52;;;;;;;9.29;55.68;99143.22;5015636;28;96933;-78
2021/11/28 00:09:59;;;;;;;30.25;17.25;;;;;;;8.97;55.57;99153.75;5013449;28;99359;-77
2021/11/28 00:12:39;;;;;;;33.47;17.67;;;;;;;9.09;55.80;99157.50;5013135;28;98250;-78
2021/11/28 00:15:06;;;;;;;30.10;17.08;;;;;;;8.99;55.68;99162.41;5012488;28;97135;-79
2021/11/28 00:17:33;;;;;;;30.20;17.05;;;;;;;8.72;56.49;99148.94;5007112;28;96795;-79
2021/11/28 00:19:59;;;;;;;32.72;17.85;;;;;;;8.77;56.40;99159.22;5009962;28;98977;-79
2021/11/28 00:22:26;;;;;;;27.98;16.55;;;;;;;8.71;56.65;99159.56;5013427;28;99395;-78
2021/11/28 00:24:52;;;;;;;30.25;17.13;;;;;;;8.78;56.45;99158.31;5014283;28;96699;-79
2021/11/28 00:27:19;;;;;;;27.25;16.75;;;;;;;8.96;56.27;99164.34;5016335;28;96754;-80
2021/11/28 00:29:47;;;;;;;29.58;16.70;;;;;;;8.82;56.59;99151.06;5031158;28;98830;-78
2021/11/28 00:32:13;;;;;;;29.13;16.83;;;;;;;8.93;56.54;99156.59;5027538;28;99540;-78
2021/11/28 00:34:40;;;;;;;29.77;16.90;;;;;;;8.86;55.94;99156.09;5032706;28;96936;-78
2021/11/28 00:37:10;;;;;;;27.80;16.73;;;;;;;8.90;56.34;99168.19;5032867;28;96778;-78
2021/11/28 00:39:36;;;;;;;28.40;16.80;;;;;;;8.91;55.81;99153.22;5032903;27;98036;-78
2021/11/28 00:42:06;;;;;;;28.90;16.58;;;;;;;8.77;55.98;99152.19;5032113;28;100464;-79
2021/11/28 00:44:32;;;;;;;29.17;16.58;;;;;;;8.62;56.88;99152.97;5032305;28;96750;-78
2021/11/28 00:47:00;;;;;;;29.42;16.48;;;;;;;8.78;56.99;99153.03;5032551;28;96921;-78
2021/11/28 00:49:27;;;;;;;27.98;16.27;;;;;;;8.90;55.98;99152.38;5033455;28;101572;-79
2021/11/28 00:51:56;;;;;;;28.20;15.48;;;;;;;8.85;55.97;99150.91;5033553;28;99348;-79
2021/11/28 00:54:24;;;;;;;24.48;13.68;;;;;;;8.80;56.15;99148.50;5027857;28;97142;-79
2021/11/28 00:56:51;;;;;;;24.35;14.57;;;;;;;8.80;55.76;99153.78;5033479;28;97687;-78
2021/11/28 00:59:18;;;;;;;24.15;14.93;;;;;;;8.97;55.29;99158.16;5031005;28;99644;-80
2021/11/28 01:01:45;;;;;;;33.95;18.20;;;;;;;8.80;55.31;99146.72;5033282;28;99287;-79
2021/11/28 01:04:12;;;;;;;31.98;18.35;;;;;;;9.01;55.42;99152.63;5032504;28;96969;-78
2021/11/28 01:06:39;;;;;;;24.63;15.00;;;;;;;8.99;55.03;99149.22;5035081;28;96732;-80
2021/11/28 01:09:07;;;;;;;26.27;15.32;;;;;;;8.99;55.07;99138.69;5038125;28;97718;-79
2021/11/28 01:11:34;;;;;;;24.10;13.05;;;;;;;9.07;55.37;99146.19;5038291;28;98187;-78
2021/11/28 01:14:01;;;;;;;21.50;12.77;;;;;;;9.07;54.53;99140.91;5034392;28;96808;-78
2021/11/28 01:16:27;;;;;;;21.38;13.13;;;;;;;9.09;54.92;99134.63;5033157;28;96720;-78
2021/11/28 01:18:54;;;;;;;18.50;12.20;;;;;;;9.11;54.29;99131.91;5031919;28;97847;-78
2021/11/28 01:21:23;;;;;;;20.85;12.90;;;;;;;9.08;54.32;99143.47;5032433;28;97438;-79
2021/11/28 01:23:50;;;;;;;23.65;12.63;;;;;;;9.08;54.53;99148.75;5030956;28;97240;-78
2021/11/28 01:26:17;;;;;;;24.75;12.70;;;;;;;9.14;54.59;99150.19;5032712;28;98078;-79
2021/11/28 01:28:47;;;;;;;24.92;12.88;;;;;;;9.09;54.64;99147.81;5017701;28;97523;-80
2021/11/28 01:31:14;;;;;;;25.90;12.48;;;;;;;8.89;53.79;99140.13;5030248;28;100921;-79
2021/11/28 01:33:40;;;;;;;20.10;13.02;;;;;;;8.83;55.34;99145.72;5005798;27;96740;-78
2021/11/28 01:36:07;;;;;;;20.65;12.35;;;;;;;8.94;55.02;99153.91;5010873;28;96814;-78
2021/11/28 01:38:35;;;;;;;22.92;13.40;;;;;;;8.90;54.93;99167.31;5001268;28;96962;-80
2021/11/28 01:41:02;;;;;;;23.75;12.82;;;;;;;9.01;54.53;99173.72;5011950;28;99208;-79
2021/11/28 01:43:29;;;;;;;21.85;12.48;;;;;;;9.10;54.70;99178.50;5010030;28;97626;-79
2021/11/28 01:45:55;;;;;;;25.42;13.48;;;;;;;9.03;54.89;99177.13;5018436;28;96845;-79
2021/11/28 01:48:23;;;;;;;22.85;13.55;;;;;;;9.01;54.63;99189.53;5013697;28;100399;-80
2021/11/28 01:50:51;;;;;;;20.75;13.25;;;;;;;9.12;54.70;99194.22;5032754;27;99156;-80
2021/11/28 01:53:20;;;;;;;20.33;12.27;;;;;;;9.05;54.57;99191.06;5013658;28;97684;-79
2021/11/28 01:55:48;;;;;;;18.95;11.65;;;;;;;9.10;54.55;99189.03;5009270;28;97170;-78
2021/11/28 01:58:15;;;;;;;17.55;11.25;;;;;;;9.16;54.74;99191.34;5009908;28;97639;-79
2021/11/28 02:00:44;;;;;;;18.45;11.77;;;;;;;8.95;54.99;99197.75;5022177;28;98915;-79
2021/11/28 02:03:12;;;;;;;17.63;11.82;;;;;;;8.96;55.19;99193.34;5016432;28;97337;-79
2021/11/28 02:05:42;;;;;;;19.33;12.57;;;;;;;9.16;54.85;99198.38;5004560;28;96858;-79
2021/11/28 02:08:08;;;;;;;18.13;11.55;;;;;;;9.14;54.79;99197.63;5016569;27;99268;-79
2021/11/28 02:10:35;;;;;;;21.10;12.25;;;;;;;8.95;55.39;99192.47;5012816;28;98810;-78
2021/11/28 02:13:03;;;;;;;17.67;11.50;;;;;;;8.99;55.40;99195.81;5029148;28;96776;-79
2021/11/28 02:15:29;;;;;;;19.10;12.27;;;;;;;9.20;54.59;99202.56;5023446;28;96769;-79
2021/11/28 02:17:57;;;;;;;19.88;12.65;;;;;;;9.11;55.04;99206.56;5012713;28;99276;-78
2021/11/28 02:20:29;;;;;;;18.40;12.60;;;;;;;9.00;55.58;99211.53;5035450;27;101186;-79
2021/11/28 02:22:58;;;;;;;19.52;12.18;;;;;;;8.83;55.54;99205.47;5027701;28;96826;-78
2021/11/28 02:25:25;;;;;;;19.52;12.27;;;;;;;8.92;56.05;99192.66;5016585;28;97415;-78
2021/11/28 02:27:53;;;;;;;21.85;13.30;;;;;;;9.05;55.38;99195.50;5018190;28;99459;-79
2021/11/28 02:30:19;;;;;;;18.73;11.77;;;;;;;9.08;55.15;99198.81;5035588;28;99185;-78
2021/11/28 02:32:47;;;;;;;19.35;11.57;;;;;;;8.97;55.12;99190.63;5035266;28;96777;-79
2021/11/28 02:35:15;;;;;;;19.60;12.68;;;;;;;9.23;54.37;99191.84;5034509;27;96949;-79
2021/11/28 02:37:42;;;;;;;18.38;12.38;;;;;;;9.11;55.30;99182.00;5031680;28;99893;-81
2021/11/28 02:40:12;;;;;;;18.90;11.35;;;;;;;9.18;54.67;99193.91;5028219;28;98909;-78
2021/11/28 02:42:39;;;;;;;22.15;12.85;;;;;;;9.06;54.85;99187.47;5029838;27;97006;-79
2021/11/28 02:45:07;;;;;;;18.30;11.30;;;;;;;9.18;54.55;99189.47;5035835;27;97070;-78
2021/11/28 02:47:33;;;;;;;19.17;12.30;;;;;;;9.14;54.36;99184.44;5027869;28;99072;-79
2021/11/28 02:50:00;;;;;;;19.38;12.35;;;;;;;9.15;54.98;99175.59;5029754;27;98008;-79
2021/11/28 02:52:26;;;;;;;20.73;12.05;;;;;;;9.27;54.16;99176.72;5031975;27;96601;-78
2021/11/28 02:54:53;;;;;;;19.92;12.45;;;;;;;9.24;54.46;99174.25;5035967;28;97015;-78
2021/11/28 02:57:21;;;;;;;17.85;11.52;;;;;;;9.41;53.90;99174.16;5031450;28;101504;-78
2021/11/28 02:59:48;;;;;;;20.98;14.07;;;;;;;9.33;53.99;99165.81;5028865;27;101348;-78
2021/11/28 03:02:14;;;;;;;19.90;11.82;;;;;;;9.43;53.51;99173.16;5032633;27;97300;-79
2021/11/28 03:04:41;;;;;;;19.48;12.45;;;;;;;9.50;53.74;99171.88;5034822;27;96787;-80
2021/11/28 03:07:08;;;;;;;19.65;12.07;;;;;;;9.38;53.77;99174.34;5032794;27;98806;-78
2021/11/28 03:09:35;;;;;;;18.25;11.27;;;;;;;9.35;53.92;99180.63;5041376;27;101978;-81
2021/11/28 03:12:01;;;;;;;22.80;12.05;;;;;;;9.39;53.89;99171.63;5028005;27;96758;-78
2021/11/28 03:14:29;;;;;;;18.70;11.55;;;;;;;9.36;53.59;99171.81;5022882;27;97149;-78
2021/11/28 03:16:56;;;;;;;17.98;11.38;;;;;;;9.34;53.53;99171.03;5030429;27;98944;-79
2021/11/28 03:19:22;;;;;;;18.35;11.73;;;;;;;9.32;53.79;99172.88;5038278;27;99690;-79
2021/11/28 03:21:49;;;;;;;18.75;11.95;;;;;;;9.41;53.96;99174.16;5029554;27;96866;-79
2021/11/28 03:24:16;;;;;;;17.20;10.88;;;;;;;9.30;53.61;99166.88;5032418;27;97068;-80
2021/11/28 03:26:44;;;;;;;16.58;11.20;;;;;;;9.30;53.64;99181.81;5033907;27;102140;-78
2021/11/28 03:29:14;;;;;;;17.40;11.40;;;;;;;9.19;53.37;99180.63;5018625;28;98971;-79
2021/11/28 03:31:46;;;;;;;17.35;11.48;;;;;;;9.28;53.87;99187.19;5020038;28;97543;-79
2021/11/28 03:34:15;;;;;;;19.13;11.73;;;;;;;9.29;53.23;99185.41;5020550;28;97109;-78
2021/11/28 03:36:45;;;;;;;17.08;11.90;;;;;;;9.42;53.45;99183.78;5014123;28;98327;-78
2021/11/28 03:39:13;;;;;;;17.65;11.77;;;;;;;9.24;53.61;99192.72;5013685;28;99123;-78
2021/11/28 03:41:42;;;;;;;19.92;11.77;;;;;;;9.16;53.07;99185.22;5017875;28;97140;-79
2021/11/28 03:44:09;;;;;;;18.23;11.02;;;;;;;9.17;53.60;99184.28;5017133;28;97338;-80
2021/11/28 03:46:35;;;;;;;14.55;10.20;;;;;;;9.18;52.98;99188.63;5014743;28;99134;-80
2021/11/28 03:49:04;;;;;;;14.50;10.57;;;;;;;9.23;53.60;99193.63;5015918;28;97738;-80
2021/11/28 03:51:32;;;;;;;18.92;11.18;;;;;;;9.19;53.37;99200.84;5016366;28;96806;-79
2021/11/28 03:53:59;;;;;;;20.73;11.70;;;;;;;9.07;53.69;99199.72;5012803;28;98325;-80
2021/11/28 03:56:26;;;;;;;14.95;10.27;;;;;;;8.93;53.64;99196.97;5005666;28;100149;-79
2021/11/28 03:58:52;;;;;;;16.80;10.52;;;;;;;9.07;53.65;99197.09;5014503;28;98088;-80
2021/11/28 04:01:21;;;;;;;15.40;9.73;;;;;;;9.03;53.09;99206.09;5011468;28;96854;-79
2021/11/28 04:03:47;;;;;;;17.60;10.55;;;;;;;9.06;53.43;99205.06;5001986;28;97070;-78
2021/11/28 04:06:15;;;;;;;18.27;10.93;;;;;;;8.99;53.82;99217.72;5014670;28;100797;-78
2021/11/28 04:08:42;;;;;;;19.42;11.25;;;;;;;8.97;53.54;99208.22;5013975;28;102280;-79
2021/11/28 04:11:09;;;;;;;18.08;11.18;;;;;;;9.06;53.58;99211.19;5014044;28;96790;-80
2021/11/28 04:13:36;;;;;;;16.35;10.68;;;;;;;9.02;53.45;99214.09;5014454;28;96803;-79
2021/11/28 04:16:03;;;;;;;16.63;10.70;;;;;;;8.83;53.49;99216.00;5013525;28;99162;-78
2021/11/28 04:18:29;;;;;;;15.63;10.13;;;;;;;8.81;53.44;99213.44;5014278;28;100635;-78
2021/11/28 04:20:56;;;;;;;17.45;11.05;;;;;;;8.49;54.39;99214.25;5014744;28;97132;-79
2021/11/28 04:23:24;;;;;;;14.93;10.75;;;;;;;8.51;54.70;99215.88;5012746;28;98599;-78
2021/11/28 04:25:51;;;;;;;16.23;10.93;;;;;;;8.38;54.57;99217.44;5011867;28;98880;-77
2021/11/28 04:28:18;;;;;;;19.10;10.45;;;;;;;8.45;54.76;99225.88;5012229;28;101313;-78
2021/11/28 04:30:44;;;;;;;19.30;11.73;;;;;;;8.37;54.79;99221.84;5014244;28;97462;-79
2021/11/28 04:33:11;;;;;;;19.90;11.25;;;;;;;8.33;54.57;99211.56;5012615;28;99071;-78
2021/11/28 04:35:38;;;;;;;15.50;10.45;;;;;;;8.33;54.96;99206.31;5012825;28;100173;-78
2021/11/28 04:38:04;;;;;;;18.52;11.05;;;;;;;8.42;54.82;99195.28;5012891;28;100656;-77
2021/11/28 04:40:32;;;;;;;18.23;10.82;;;;;;;8.36;54.53;99190.34;5013872;28;96696;-80
2021/11/28 04:42:59;;;;;;;17.75;11.23;;;;;;;8.31;54.81;99195.84;5014885;28;96976;-78
2021/11/28 04:45:25;;;;;;;18.10;11.25;;;;;;;8.24;55.06;99201.47;5011988;28;97776;-77
2021/11/28 04:47:52;;;;;;;17.02;10.93;;;;;;;8.38;54.66;99199.88;5013012;28;97563;-78
2021/11/28 04:50:18;;;;;;;18.92;11.75;;;;;;;8.20;54.61;99203.41;5013704;28;96793;-77
2021/11/28 04:52:45;;;;;;;17.77;11.70;;;;;;;8.06;55.00;99207.66;5002290;28;96947;-80
2021/11/28 04:55:13;;;;;;;18.60;10.85;;;;;;;8.09;54.85;99210.09;5012047;28;101753;-79
2021/11/28 04:57:42;;;;;;;19.50;11.32;;;;;;;8.13;55.14;99217.78;5017026;28;99345;-79
2021/11/28 05:00:14;;;;;;;17.70;10.85;;;;;;;8.16;54.88;99227.28;5013838;28;96747;-79
2021/11/28 05:02:40;;;;;;;17.30;11.73;;;;;;;8.20;54.28;99221.81;5016267;28;98552;-79
2021/11/28 05:05:08;;;;;;;16.42;11.07;;;;;;;8.11;54.80;99232.78;5015806;28;98552;-79
2021/11/28 05:07:34;;;;;;;21.55;11.90;;;;;;;8.06;54.82;99234.81;5015652;28;98812;-78
2021/11/28 05:10:01;;;;;;;19.85;11.85;;;;;;;7.71;55.10;99238.28;5016094;28;96739;-78
2021/11/28 05:12:28;;;;;;;15.93;10.85;;;;;;;7.89;55.58;99230.34;5013656;28;97160;-78
2021/11/28 05:14:56;;;;;;;19.90;11.10;;;;;;;7.79;55.25;99239.63;5012661;28;100184;-78
2021/11/28 05:17:23;;;;;;;18.77;12.05;;;;;;;7.74;55.49;99243.41;5015754;28;99789;-79
2021/11/28 05:19:50;;;;;;;20.70;11.38;;;;;;;7.70;55.70;99247.09;5014200;28;96757;-80
2021/11/28 05:22:16;;;;;;;15.85;10.90;;;;;;;7.69;55.92;99250.63;5014514;28;97212;-79
2021/11/28 05:24:44;;;;;;;23.63;11.82;;;;;;;7.82;55.19;99251.75;4998816;28;98954;-79
2021/11/28 05:27:11;;;;;;;19.17;11.15;;;;;;;7.79;55.29;99247.50;5013069;28;100870;-80
2021/11/28 05:29:37;;;;;;;21.65;11.65;;;;;;;7.67;54.91;99241.97;5032062;28;97084;-79
2021/11/28 05:32:06;;;;;;;21.38;11.52;;;;;;;7.72;54.75;99242.59;5033845;28;96687;-79
2021/11/28 05:34:32;;;;;;;21.42;11.63;;;;;;;7.57;55.77;99239.78;5031237;28;98867;-80
2021/11/28 05:36:59;;;;;;;16.83;11.50;;;;;;;7.34;56.01;99241.78;5033305;28;99606;-79
2021/11/28 05:39:26;;;;;;;20.02;12.55;;;;;;;7.69;55.29;99250.63;5032823;28;98554;-80
2021/11/28 05:41:52;;;;;;;23.50;12.52;;;;;;;7.43;55.99;99250.06;5032417;28;97207;-79
2021/11/28 05:44:19;;;;;;;16.60;11.43;;;;;;;7.44;55.81;99243.91;5030989;28;98105;-79
2021/11/28 05:46:45;;;;;;;18.83;11.57;;;;;;;7.42;55.70;99240.47;5033308;28;100692;-78
2021/11/28 05:49:13;;;;;;;23.30;12.07;;;;;;;7.51;55.22;99242.69;5032153;28;96793;-78
2021/11/28 05:51:40;;;;;;;20.73;11.75;;;;;;;7.48;55.80;99247.25;5033472;28;96826;-79
2021/11/28 05:54:06;;;;;;;15.93;11.15;;;;;;;7.52;55.38;99241.78;5036561;28;98232;-80
2021/11/28 05:56:33;;;;;;;21.08;12.02;;;;;;;7.39;56.11;99239.78;5033032;28;98796;-78
2021/11/28 05:59:00;;;;;;;20.98;12.23;;;;;;;7.34;55.84;99242.63;5033594;28;97106;-80
2021/11/28 06:01:26;;;;;;;18.08;11.85;;;;;;;7.26;56.13;99244.75;5033582;28;97259;-79
2021/11/28 06:03:53;;;;;;;21.00;12.35;;;;;;;7.29;56.19;99239.34;5032757;28;98815;-79
2021/11/28 06:06:21;;;;;;;20.00;12.02;;;;;;;7.11;56.22;99241.03;5024937;28;98840;-81
2021/11/28 06:08:47;;;;;;;19.90;12.70;;;;;;;7.22;56.23;99248.41;5031362;28;98601;-79
2021/11/28 06:11:14;;;;;;;20.75;12.23;;;;;;;7.31;55.72;99249.78;5029437;28;97147;-79
2021/11/28 06:13:41;;;;;;;18.67;11.82;;;;;;;7.30;55.46;99259.44;5033006;28;101408;-79
2021/11/28 06:16:07;;;;;;;18.48;11.88;;;;;;;7.44;55.66;99245.66;5035360;28;100957;-79
2021/11/28 06:18:34;;;;;;;22.92;12.35;;;;;;;7.36;55.41;99258.31;5041463;28;96674;-79
2021/11/28 06:21:00;;;;;;;17.70;10.88;;;;;;;7.43;55.21;99246.59;5044331;28;97095;-78
2021/11/28 06:23:28;;;;;;;17.00;11.52;;;;;;;7.34;54.94;99253.16;5043011;28;97738;-79
2021/11/28 06:25:55;;;;;;;17.75;11.57;;;;;;;7.40;55.46;99255.50;5045194;28;97423;-78
2021/11/28 06:28:22;;;;;;;18.05;11.80;;;;;;;7.45;55.13;99269.25;5026414;28;96888;-79
2021/11/28 06:30:48;;;;;;;19.88;12.07;;;;;;;7.35;54.76;99269.78;5020405;28;97345;-79
2021/11/28 06:33:16;;;;;;;20.77;12.43;;;;;;;7.20;55.13;99272.16;5011970;28;98977;-79
2021/11/28 06:35:42;;;;;;;20.35;12.18;;;;;;;7.01;55.46;99278.31;5011352;28;99690;-80
2021/11/28 06:38:09;;;;;;;18.92;12.68;;;;;;;7.02;55.21;99278.22;5015470;28;96671;-79
2021/11/28 06:40:37;;;;;;;18.55;11.93;;;;;;;7.08;55.63;99279.75;5016181;28;96858;-79
2021/11/28 06:43:03;;;;;;;17.40;11.07;;;;;;;7.16;55.49;99272.34;5015607;28;101064;-79
2021/11/28 06:45:30;;;;;;;18.63;12.52;;;;;;;7.18;55.04;99266.13;5014588;28;101732;-79
2021/11/28 06:47:58;;;;;;;20.65;12.25;;;;;;;7.18;55.15;99273.13;5015200;28;96872;-79
2021/11/28 06:50:24;;;;;;;21.25;11.93;;;;;;;7.34;55.20;99281.19;5015017;28;97352;-79
2021/11/28 06:52:51;;;;;;;17.65;11.55;;;;;;;7.29;55.15;99291.88;5015625;28;98880;-79
2021/11/28 06:55:18;;;;;;;18.73;11.82;;;;;;;7.18;54.55;99294.16;5013413;28;99129;-79
2021/11/28 06:57:46;;;;;;;15.50;10.63;;;;;;;7.13;55.06;99293.50;5016331;28;97533;-79
2021/11/28 07:00:14;;;;;;;17.02;11.57;;;;;;;7.15;54.92;99291.69;5015326;28;97149;-80
2021/11/28 07:02:41;;;;;;;16.98;10.85;;;;;;;6.96;55.12;99293.38;5014699;28;100928;-80
2021/11/28 07:05:08;;;;;;;20.88;11.60;;;;;;;7.05;55.04;99288.59;5014258;28;99854;-79
2021/11/28 07:07:35;;;;;;;19.02;12.18;;;;;;;6.85;55.10;99287.75;5015722;28;96890;-79
2021/11/28 07:10:01;;;;;;;18.05;11.38;;;;;;;6.93;54.42;99291.75;5006933;28;96744;-78
2021/11/28 07:12:28;;;;;;;18.80;12.18;;;;;;;6.95;55.12;99284.69;5004422;28;97727;-79
2021/11/28 07:14:56;;;;;;;18.60;11.30;;;;;;;6.80;55.46;99280.09;5012847;28;97707;-79
2021/11/28 07:17:22;;;;;;;22.45;12.35;;;;;;;6.70;55.53;99279.63;5016133;28;96660;-80
2021/11/28 07:19:49;;;;;;;19.95;11.70;;;;;;;6.86;54.99;99286.84;5013046;28;96876;-80
2021/11/28 07:22:15;;;;;;;18.98;11.48;;;;;;;7.04;55.03;99291.28;5016000;28;98114;-79
2021/11/28 07:24:42;;;;;;;22.88;12.00;;;;;;;6.89;54.66;99278.84;5004500;28;98270;-79
2021/11/28 07:27:09;;;;;;;17.30;11.38;;;;;;;6.98;54.23;99287.16;5016209;28;96832;-79
2021/11/28 07:29:36;;;;;;;16.80;11.52;;;;;;;6.76;54.62;99291.66;5013205;28;96828;-80
2021/11/28 07:32:04;;;;;;;18.88;11.50;;;;;;;6.70;55.09;99282.25;5016367;28;98732;-80
2021/11/28 07:34:31;;;;;;;19.70;11.77;;;;;;;7.01;54.50;99291.44;5013019;27;97516;-79
2021/11/28 07:36:57;;;;;;;22.95;11.10;;;;;;;7.01;53.98;99302.78;5024234;28;97041;-80
2021/11/28 07:39:24;;;;;;;28.05;12.98;;;;;;;6.85;54.57;99295.63;5003888;28;98078;-78
2021/11/28 07:41:51;;;;;;;16.02;11.30;;;;;;;7.09;54.57;99302.44;5005929;28;99465;-80
2021/11/28 07:44:18;;;;;;;18.02;11.60;;;;;;;7.13;54.28;99306.66;5027183;28;100936;-78
2021/11/28 07:46:44;;;;;;;22.98;12.55;;;;;;;7.14;53.84;99308.34;5021358;28;96792;-79
2021/11/28 07:49:12;;;;;;;17.45;10.98;;;;;;;6.95;54.78;99310.09;5024050;27;96960;-79
2021/11/28 07:51:39;;;;;;;17.60;11.07;;;;;;;7.21;54.26;99304.53;5023776;28;99127;-79
2021/11/28 07:54:06;;;;;;;18.70;11.05;;;;;;;7.32;53.57;99298.78;5027315;28;100063;-78
2021/11/28 07:56:35;;;;;;;18.98;10.82;;;;;;;7.21;54.23;99304.53;5020115;28;96799;-79
2021/11/28 07:59:02;;;;;;;19.67;11.55;;;;;;;7.32;53.94;99315.41;5023305;28;96781;-79
2021/11/28 08:01:29;;;;;;;19.10;11.85;;;;;;;7.32;53.49;99318.03;5017502;28;101106;-78
2021/11/28 08:03:55;;;;;;;22.17;11.80;;;;;;;7.31;53.33;99326.84;5027514;28;97994;-79
2021/11/28 08:06:23;;;;;;;17.70;10.18;;;;;;;7.44;53.05;99327.16;5022384;28;96753;-79
2021/11/28 08:08:50;;;;;;;18.77;11.43;;;;;;;7.52;52.95;99319.78;5033910;27;97164;-77
2021/11/28 08:11:18;;;;;;;16.48;10.98;;;;;;;7.51;52.54;99318.91;5000224;28;97590;-79
2021/11/28 08:13:45;;;;;;;20.02;10.63;;;;;;;7.58;52.66;99324.75;5021105;28;96416;-80
2021/11/28 08:16:12;;;;;;;19.85;11.30;;;;;;;7.58;52.91;99330.88;5024286;28;96679;-79
2021/11/28 08:18:39;;;;;;;21.52;11.45;;;;;;;7.51;53.38;99339.94;5007547;28;98708;-79
2021/11/28 08:21:06;;;;;;;17.92;10.70;;;;;;;7.63;52.82;99330.66;5001388;28;99471;-78
2021/11/28 08:23:33;;;;;;;20.35;10.90;;;;;;;7.73;52.06;99336.34;5003591;28;99047;-77
2021/11/28 08:26:00;;;;;;;18.98;10.75;;;;;;;7.93;52.06;99336.28;5017250;28;97378;-79
2021/11/28 08:28:27;;;;;;;14.45;9.80;;;;;;;7.98;51.32;99331.66;5016676;27;97147;-79
2021/11/28 08:30:53;;;;;;;18.73;10.40;;;;;;;7.70;52.07;99337.31;5024833;28;98301;-80
2021/11/28 08:33:20;;;;;;;18.10;10.65;;;;;;;7.60;52.17;99328.16;5022077;28;101212;-78
2021/11/28 08:35:47;;;;;;;19.27;11.75;;;;;;;7.58;52.12;99325.59;5022893;28;98616;-79
2021/11/28 08:38:14;;;;;;;17.48;10.05;;;;;;;7.88;51.89;99320.69;5022498;28;96852;-80
2021/11/28 08:40:42;;;;;;;15.65;10.07;;;;;;;7.87;52.07;99326.03;5017701;28;97597;-79
2021/11/28 08:43:09;;;;;;;20.02;12.00;;;;;;;7.84;52.02;99326.16;5024179;28;97694;-79
2021/11/28 08:45:41;;;;;;;17.10;10.57;;;;;;;8.17;51.09;99334.25;5033336;27;97025;-83
2021/11/28 08:48:08;;;;;;;14.93;9.65;;;;;;;7.87;51.20;99336.56;5041391;28;96584;-82
2021/11/28 08:50:36;;;;;;;15.32;9.75;;;;;;;7.87;51.53;99339.19;5037100;28;98210;-83
2021/11/28 08:53:03;;;;;;;20.77;10.75;;;;;;;7.94;51.35;99348.50;5037671;28;99911;-83
2021/11/28 08:55:33;;;;;;;17.20;10.30;;;;;;;8.08;51.06;99342.56;5034479;28;97355;-83
2021/11/28 08:58:13;;;;;;;18.33;10.82;;;;;;;8.13;51.12;99345.84;5023929;28;97525;-84
2021/11/28 09:00:40;;;;;;;19.50;9.77;;;;;;;8.31;50.68;99345.00;5032256;28;99624;-85
2021/11/28 09:03:12;;;;;;;17.95;9.88;;;;;;;8.34;50.02;99342.19;5035087;28;100144;-84
2021/11/28 09:05:38;;;;;;;18.13;9.75;;;;;;;8.59;49.23;99352.41;5030377;28;96655;-81
2021/11/28 09:08:06;;;;;;;14.57;8.95;;;;;;;8.61;49.11;99356.66;5011464;28;96964;-82
2021/11/28 09:10:33;;;;;;;13.88;8.93;;;;;;;8.60;49.22;99348.84;5027317;27;99486;-82
2021/11/28 09:13:02;;;;;;;16.42;9.05;;;;;;;8.58;49.35;99351.56;5040008;28;98385;-80
2021/11/28 09:15:29;;;;;;;15.95;9.00;;;;;;;8.65;48.90;99352.09;5021598;28;97064;-82
2021/11/28 09:17:58;;;;;;;17.23;8.88;;;;;;;8.71;49.04;99354.44;5033246;28;96807;-82
2021/11/28 09:20:26;;;;;;;19.27;9.27;;;;;;;8.78;48.98;99351.41;5023546;28;99539;-80
2021/11/28 09:26:02;;;;;;;16.38;8.35;;;;;;;8.99;47.92;99346.81;5040471;28;96714;-81
2021/11/28 09:31:49;;;;;;;26.63;9.95;;;;;;;9.04;47.43;99336.94;5029917;28;97587;-82
2021/11/28 09:34:27;;;;;;;14.85;8.50;;;;;;;9.04;48.04;99331.66;5042531;28;100731;-82
2021/11/28 09:37:09;;;;;;;;;;;;;;;;;;;;;
2021/11/28 09:39:38;;;;;;;16.90;8.57;;;;;;;9.44;47.13;99329.56;5031744;28;118100;-81
2021/11/28 09:42:12;;;;;;;20.98;9.63;;;;;;;9.30;47.43;99327.66;5033958;28;98599;-82
2021/11/28 09:44:47;;;;;;;21.27;8.65;;;;;;;9.36;46.52;99332.59;5040124;28;97202;-82
2021/11/28 09:47:14;;;;;;;14.05;7.95;;;;;;;9.54;46.94;99322.84;5044404;28;96732;-81
2021/11/28 09:49:44;;;;;;;15.05;8.30;;;;;;;9.34;46.40;99320.44;5036245;28;96793;-80
2021/11/28 09:52:19;;;;;;;16.10;8.43;;;;;;;9.62;46.59;99309.25;5041671;28;96878;-82
2021/11/28 09:54:49;;;;;;;15.47;8.50;;;;;;;9.76;46.03;99312.00;5029398;28;98227;-81
2021/11/28 09:57:21;;;;;;;15.88;8.55;;;;;;;9.78;45.59;99316.25;5041064;28;97248;-81
2021/11/28 09:59:54;;;;;;;16.65;8.90;;;;;;;9.82;44.92;99309.88;5041260;28;97064;-80
2021/11/28 10:02:23;;;;;;;14.77;8.35;;;;;;;9.96;45.65;99309.13;5032376;28;98345;-82
2021/11/28 10:04:51;;;;;;;18.35;9.63;;;;;;;10.25;45.03;99310.13;5037336;28;100510;-81
2021/11/28 10:07:22;;;;;;;12.52;7.97;;;;;;;10.18;44.90;99306.16;5042166;28;96700;-81
2021/11/28 10:09:50;;;;;;;16.98;9.02;;;;;;;10.35;44.70;99306.06;5034777;28;96778;-82
2021/11/28 10:12:19;;;;;;;20.13;8.40;;;;;;;10.45;45.12;99309.00;5039698;28;97786;-81
2021/11/28 10:14:51;;;;;;;14.73;8.48;;;;;;;10.31;44.87;99315.06;5037764;28;101106;-82
2021/11/28 10:17:20;;;;;;;15.77;8.82;;;;;;;10.50;44.50;99301.69;5049383;28;97660;-81
2021/11/28 10:19:48;;;;;;;17.65;8.18;;;;;;;10.57;44.75;99306.50;5029566;28;97906;-81
2021/11/28 10:22:18;;;;;;;19.55;8.73;;;;;;;10.53;44.21;99297.06;5042468;28;98603;-82
2021/11/28 10:25:00;;;;;;;12.48;7.82;;;;;;;10.49;43.93;99295.56;5036728;28;99254;-83
2021/11/28 10:27:35;;;;;;;17.27;8.43;;;;;;;10.19;43.90;99295.50;5039818;28;96686;-81
2021/11/28 10:30:09;;;;;;;16.80;8.25;;;;;;;10.37;44.48;99288.34;5033985;28;96825;-82
2021/11/28 10:32:49;;;;;;;17.92;8.23;;;;;;;10.68;43.92;99300.63;5048256;28;99826;-81
2021/11/28 10:38:11;;;;;;;14.95;8.55;;;;;;;10.44;44.14;99302.88;5045627;28;96725;-81
2021/11/28 10:40:44;;;;;;;15.52;8.55;;;;;;;10.07;44.18;99293.53;5029514;28;96827;-82
2021/11/28 10:43:24;;;;;;;14.23;7.95;;;;;;;10.29;45.05;99290.56;5030139;28;98231;-82
2021/11/28 10:45:56;;;;;;;19.00;8.05;;;;;;;10.70;44.90;99286.34;5027189;28;100193;-83
2021/11/28 10:48:27;;;;;;;16.60;7.30;;;;;;;10.38;45.07;99290.03;5035105;28;96882;-83
2021/11/28 10:51:00;;;;;;;14.57;7.57;;;;;;;10.23;45.00;99296.19;5028449;28;96917;-83
2021/11/28 10:53:28;;;;;;;15.30;7.10;;;;;;;9.97;44.69;99293.22;5032205;28;98186;-83
2021/11/28 10:56:04;;;;;;;16.33;6.78;;;;;;;9.99;45.21;99293.97;5029034;28;97613;-83
2021/11/28 11:01:44;;;;;;;16.38;7.38;;;;;;;10.26;45.52;99296.00;5032892;28;96826;-83
2021/11/28 11:04:31;;;;;;;;;;;;;;;;;;;;;
2021/11/28 11:07:21;;;;;;;14.27;6.90;;;;;;;10.09;44.76;99293.44;5031784;28;129258;-82
2021/11/28 11:09:52;;;;;;;16.77;7.13;;;;;;;10.24;44.61;99292.63;5031993;28;97276;-82
2021/11/28 11:12:28;;;;;;;19.33;7.28;;;;;;;10.20;44.86;99296.34;5033678;28;96677;-81
2021/11/28 11:14:59;;;;;;;15.70;9.13;;;;;;;10.22;45.37;99291.84;5028697;28;98168;-82
2021/11/28 11:17:41;;;;;;;15.05;7.57;;;;;;;10.30;44.59;99289.63;5032086;28;97081;-83
2021/11/28 11:20:11;;;;;;;17.33;7.20;;;;;;;10.36;45.08;99282.22;5033390;28;96768;-81
2021/11/28 11:22:39;;;;;;;17.42;7.90;;;;;;;10.25;45.55;99289.88;5030162;28;97323;-82
2021/11/28 11:25:16;;;;;;;17.02;7.13;;;;;;;10.21;45.04;99287.50;5028509;28;100060;-82
2021/11/28 11:27:53;;;;;;;16.73;7.25;;;;;;;10.23;45.18;99291.78;5035049;27;100152;-82
2021/11/28 11:30:25;;;;;;;18.40;6.85;;;;;;;10.07;45.54;99290.03;5051872;28;97220;-82
2021/11/28 11:32:56;;;;;;;18.92;7.43;;;;;;;9.98;45.92;99286.13;5052136;27;97107;-81
2021/11/28 11:35:32;;;;;;;14.23;7.00;;;;;;;10.44;44.69;99284.38;5056684;27;98401;-82
2021/11/28 11:38:01;;;;;;;18.17;7.20;;;;;;;10.29;44.92;99294.06;5035035;27;97395;-79
2021/11/28 11:40:31;;;;;;;16.77;6.93;;;;;;;10.08;45.86;99289.97;5056042;27;97211;-80
2021/11/28 11:42:58;;;;;;;15.73;6.95;;;;;;;10.33;45.53;99290.28;5057524;27;96002;-81
2021/11/28 11:45:29;;;;;;;22.02;7.05;;;;;;;10.26;45.02;99290.72;5053996;27;97181;-77